createdAt,value
2023-03-17T00:00:52.644Z,0.02
2023-03-17T00:01:52.003Z,0.00
2023-03-17T00:02:51.292Z,0.00
2023-03-17T00:03:51.683Z,0.00
2023-03-17T00:04:51.893Z,0.00
2023-03-17T00:05:51.170Z,0.00
2023-03-17T00:06:52.414Z,0.05
2023-03-17T00:07:51.814Z,0.00
2023-03-17T00:08:51.075Z,0.00
2023-03-17T00:09:51.403Z,0.00
2023-03-17T00:10:51.801Z,0.00
2023-03-17T00:11:51.017Z,0.02
2023-03-17T00:12:51.334Z,0.00
2023-03-17T00:13:51.630Z,0.00
2023-03-17T00:14:50.888Z,0.02
2023-03-17T00:15:52.174Z,0.00
2023-03-17T00:16:51.673Z,0.00
2023-03-17T00:17:50.806Z,0.00
2023-03-17T00:18:52.055Z,0.00
2023-03-17T00:19:51.429Z,0.02
2023-03-17T00:20:51.723Z,0.00
2023-03-17T00:21:51.131Z,0.00
2023-03-17T00:22:51.315Z,0.00
2023-03-17T00:23:51.646Z,0.02
2023-03-17T00:24:51.868Z,0.01
2023-03-17T00:26:52.505Z,0.00
2023-03-17T00:27:51.911Z,0.01
2023-03-17T00:28:52.068Z,0.00
2023-03-17T00:29:51.418Z,0.00
2023-03-17T00:30:51.724Z,0.00
2023-03-17T00:31:51.028Z,0.00
2023-03-17T00:32:51.353Z,0.00
2023-03-17T00:33:50.898Z,0.02
2023-03-17T00:34:51.811Z,0.00
2023-03-17T00:35:51.182Z,0.02
2023-03-17T00:36:52.422Z,0.02
2023-03-17T00:37:51.688Z,0.00
2023-03-17T00:38:51.085Z,0.02
2023-03-17T00:39:51.390Z,0.00
2023-03-17T00:40:51.562Z,0.00
2023-03-17T00:41:52.018Z,0.00
2023-03-17T00:42:51.230Z,0.02
2023-03-17T00:43:50.565Z,0.02
2023-03-17T00:44:50.580Z,0.00
2023-03-17T00:45:51.810Z,0.00
2023-03-17T00:46:51.165Z,0.00
2023-03-17T00:47:51.400Z,0.00
2023-03-17T00:48:50.649Z,0.00
2023-03-17T00:49:50.919Z,0.01
2023-03-17T00:50:51.188Z,0.00
2023-03-17T00:51:50.444Z,0.02
2023-03-17T00:52:50.693Z,0.00
2023-03-17T00:53:51.007Z,0.02
2023-03-17T00:54:51.309Z,0.00
2023-03-17T00:55:51.521Z,0.00
2023-03-17T00:56:50.889Z,0.02
2023-03-17T00:57:51.166Z,0.00
2023-03-17T00:58:50.441Z,0.00
2023-03-17T00:59:50.803Z,0.02
2023-03-17T01:00:51.074Z,0.00
2023-03-17T01:01:50.355Z,0.00
2023-03-17T01:02:51.561Z,0.00
2023-03-17T01:03:50.904Z,0.02
2023-03-17T01:04:59.758Z,0.00
2023-03-17T01:05:51.529Z,0.00
2023-03-17T01:06:51.723Z,0.02
2023-03-17T01:07:51.079Z,0.00
2023-03-17T01:08:50.373Z,0.02
2023-03-17T01:09:50.646Z,0.00
2023-03-17T01:10:51.916Z,0.00
2023-03-17T01:11:50.314Z,0.00
2023-03-17T01:12:51.545Z,0.00
2023-03-17T01:13:50.930Z,0.00
2023-03-17T01:14:50.183Z,0.02
2023-03-17T01:15:50.537Z,0.02
2023-03-17T01:16:50.960Z,0.00
2023-03-17T01:17:51.097Z,0.02
2023-03-17T01:18:50.471Z,0.00
2023-03-17T01:19:51.703Z,0.00
2023-03-17T01:21:50.359Z,0.00
2023-03-17T01:22:50.688Z,0.01
2023-03-17T01:23:49.936Z,0.00
2023-03-17T01:24:51.212Z,0.00
2023-03-17T01:25:50.559Z,0.02
2023-03-17T01:26:51.834Z,0.04
2023-03-17T01:27:50.149Z,0.02
2023-03-17T01:28:50.521Z,0.02
2023-03-17T01:29:50.786Z,0.02
2023-03-17T01:30:50.999Z,0.00
2023-03-17T01:31:50.361Z,0.00
2023-03-17T01:32:50.731Z,0.02
2023-03-17T01:33:50.893Z,0.04
2023-03-17T01:34:50.625Z,0.00
2023-03-17T01:35:51.545Z,0.02
2023-03-17T01:36:50.790Z,0.00
2023-03-17T01:37:51.085Z,0.00
2023-03-17T01:38:50.434Z,0.02
2023-03-17T01:39:49.717Z,0.00
2023-03-17T01:40:50.057Z,0.00
2023-03-17T01:41:50.395Z,0.02
2023-03-17T01:42:50.699Z,0.00
2023-03-17T01:43:49.987Z,0.00
2023-03-17T01:44:50.316Z,0.00
2023-03-17T01:45:50.676Z,0.00
2023-03-17T01:46:49.949Z,0.02
2023-03-17T01:47:50.274Z,0.02
2023-03-17T01:48:51.549Z,0.00
2023-03-17T01:49:50.854Z,0.00
2023-03-17T01:50:50.225Z,0.00
2023-03-17T01:51:50.561Z,0.00
2023-03-17T01:52:49.856Z,0.00
2023-03-17T01:53:50.186Z,0.02
2023-03-17T01:54:49.483Z,0.00
2023-03-17T01:55:50.860Z,0.00
2023-03-17T01:56:50.137Z,0.00
2023-03-17T01:57:50.468Z,0.00
2023-03-17T01:58:49.785Z,0.00
2023-03-17T01:59:50.096Z,0.00
2023-03-17T02:00:50.517Z,0.00
2023-03-17T02:01:49.670Z,0.00
2023-03-17T02:02:50.932Z,0.02
2023-03-17T02:03:50.353Z,0.04
2023-03-17T02:04:50.541Z,0.02
2023-03-17T02:05:49.915Z,0.00
2023-03-17T02:06:57.876Z,0.00
2023-03-17T02:07:50.516Z,0.00
2023-03-17T02:08:49.862Z,0.00
2023-03-17T02:09:50.162Z,0.00
2023-03-17T02:10:49.438Z,0.00
2023-03-17T02:11:49.779Z,0.02
2023-03-17T02:12:50.093Z,0.00
2023-03-17T02:13:49.363Z,0.00
2023-03-17T02:14:50.628Z,0.00
2023-03-17T02:15:50.978Z,0.00
2023-03-17T02:16:50.260Z,0.00
2023-03-17T02:17:49.661Z,0.02
2023-03-17T02:18:50.847Z,0.00
2023-03-17T02:20:49.498Z,0.02
2023-03-17T02:21:49.839Z,0.00
2023-03-17T02:22:51.100Z,0.00
2023-03-17T02:23:49.428Z,0.02
2023-03-17T02:24:50.699Z,0.02
2023-03-17T02:25:51.004Z,0.00
2023-03-17T02:26:49.320Z,0.00
2023-03-17T02:27:49.658Z,0.00
2023-03-17T02:28:49.950Z,0.00
2023-03-17T02:29:49.242Z,0.00
2023-03-17T02:30:49.613Z,0.02
2023-03-17T02:31:49.875Z,0.00
2023-03-17T02:32:50.154Z,0.00
2023-03-17T02:33:49.561Z,0.02
2023-03-17T02:34:49.779Z,0.00
2023-03-17T02:35:49.097Z,0.00
2023-03-17T02:36:50.374Z,0.00
2023-03-17T02:37:49.690Z,0.00
2023-03-17T02:38:49.894Z,0.02
2023-03-17T02:39:50.331Z,0.00
2023-03-17T02:40:49.593Z,0.00
2023-03-17T02:41:49.930Z,0.00
2023-03-17T02:42:49.205Z,0.00
2023-03-17T02:43:50.457Z,0.02
2023-03-17T02:44:49.864Z,0.00
2023-03-17T02:45:50.092Z,0.02
2023-03-17T02:46:49.440Z,0.00
2023-03-17T02:47:49.773Z,0.00
2023-03-17T02:48:49.973Z,0.02
2023-03-17T02:49:50.305Z,0.02
2023-03-17T02:50:50.667Z,0.00
2023-03-17T02:51:49.880Z,0.02
2023-03-17T02:52:50.213Z,0.00
2023-03-17T02:53:49.604Z,0.02
2023-03-17T02:54:49.845Z,0.00
2023-03-17T02:55:48.787Z,0.04
2023-03-17T02:56:49.182Z,0.01
2023-03-17T02:57:49.453Z,0.02
2023-03-17T02:58:49.710Z,0.00
2023-03-17T02:59:49.106Z,0.00
2023-03-17T03:00:50.359Z,0.00
2023-03-17T03:01:48.818Z,0.00
2023-03-17T03:02:50.252Z,0.00
2023-03-17T03:03:50.309Z,0.02
2023-03-17T03:04:48.684Z,0.00
2023-03-17T03:05:49.960Z,0.01
2023-03-17T03:06:49.377Z,0.02
2023-03-17T03:07:48.652Z,0.04
2023-03-17T03:08:50.000Z,0.00
2023-03-17T03:09:50.293Z,0.00
2023-03-17T03:10:49.571Z,0.01
2023-03-17T03:11:48.967Z,0.02
2023-03-17T03:12:49.296Z,0.00
2023-03-17T03:13:49.546Z,0.00
2023-03-17T03:14:49.034Z,0.02
2023-03-17T03:16:49.545Z,0.00
2023-03-17T03:17:48.923Z,0.01
2023-03-17T03:18:49.270Z,0.01
2023-03-17T03:19:49.491Z,0.00
2023-03-17T03:20:49.893Z,0.02
2023-03-17T03:21:50.156Z,0.01
2023-03-17T03:22:49.481Z,0.00
2023-03-17T03:23:49.805Z,0.04
2023-03-17T03:24:50.143Z,0.01
2023-03-17T03:26:49.786Z,0.00
2023-03-17T03:27:49.154Z,0.06
2023-03-17T03:28:49.378Z,0.00
2023-03-17T03:29:49.743Z,0.00
2023-03-17T03:30:50.058Z,0.02
2023-03-17T03:31:49.333Z,0.00
2023-03-17T03:32:49.753Z,0.02
2023-03-17T03:33:49.048Z,0.00
2023-03-17T03:34:49.205Z,0.02
2023-03-17T03:35:49.651Z,0.00
2023-03-17T03:36:48.984Z,0.02
2023-03-17T03:37:49.240Z,0.04
2023-03-17T03:38:49.607Z,0.00
2023-03-17T03:39:48.964Z,0.00
2023-03-17T03:40:49.310Z,0.02
2023-03-17T03:41:49.518Z,0.02
2023-03-17T03:42:48.895Z,0.02
2023-03-17T03:43:48.192Z,0.00
2023-03-17T03:44:48.604Z,0.00
2023-03-17T03:45:49.683Z,0.00
2023-03-17T03:46:48.190Z,0.00
2023-03-17T03:47:49.372Z,0.02
2023-03-17T03:48:49.702Z,0.00
2023-03-17T03:49:48.988Z,0.00
2023-03-17T03:50:48.372Z,0.01
2023-03-17T03:51:49.621Z,0.00
2023-03-17T03:52:47.968Z,0.00
2023-03-17T03:53:48.328Z,0.00
2023-03-17T03:54:48.620Z,0.00
2023-03-17T03:55:47.878Z,0.02
2023-03-17T03:56:48.282Z,0.00
2023-03-17T03:57:48.523Z,0.01
2023-03-17T03:58:48.866Z,0.02
2023-03-17T03:59:48.113Z,0.02
2023-03-17T04:00:49.388Z,0.01
2023-03-17T04:01:48.935Z,0.02
2023-03-17T04:02:48.185Z,0.01
2023-03-17T04:03:48.415Z,0.02
2023-03-17T04:04:48.728Z,0.00
2023-03-17T04:05:48.027Z,0.00
2023-03-17T04:06:49.287Z,0.00
2023-03-17T04:07:48.724Z,0.02
2023-03-17T04:08:47.945Z,0.06
2023-03-17T04:09:48.271Z,0.00
2023-03-17T04:10:48.590Z,0.00
2023-03-17T04:11:47.899Z,0.02
2023-03-17T04:12:48.189Z,0.00
2023-03-17T04:13:49.549Z,0.00
2023-03-17T04:14:47.812Z,0.02
2023-03-17T04:15:48.196Z,0.02
2023-03-17T04:16:48.435Z,0.02
2023-03-17T04:17:48.651Z,0.00
2023-03-17T04:18:49.043Z,0.05
2023-03-17T04:19:48.396Z,0.00
2023-03-17T04:20:47.671Z,0.00
2023-03-17T04:21:47.974Z,0.02
2023-03-17T04:22:48.299Z,0.02
2023-03-17T04:23:47.585Z,0.00
2023-03-17T04:24:48.869Z,0.00
2023-03-17T04:25:49.220Z,0.02
2023-03-17T04:26:48.468Z,0.02
2023-03-17T04:27:48.805Z,0.02
2023-03-17T04:28:48.204Z,0.02
2023-03-17T04:29:47.508Z,0.00
2023-03-17T04:30:47.790Z,0.00
2023-03-17T04:31:48.224Z,0.02
2023-03-17T04:32:48.470Z,0.02
2023-03-17T04:33:47.725Z,0.02
2023-03-17T04:34:48.063Z,0.00
2023-03-17T04:35:48.477Z,0.01
2023-03-17T04:36:48.615Z,0.01
2023-03-17T04:37:48.040Z,0.00
2023-03-17T04:38:48.305Z,0.00
2023-03-17T04:39:47.616Z,0.06
2023-03-17T04:40:47.517Z,0.02
2023-03-17T04:41:47.825Z,0.00
2023-03-17T04:42:48.178Z,0.00
2023-03-17T04:43:47.458Z,0.00
2023-03-17T04:44:47.752Z,0.00
2023-03-17T04:45:49.057Z,0.00
2023-03-17T04:46:47.408Z,0.02
2023-03-17T04:47:47.671Z,0.00
2023-03-17T04:48:47.988Z,0.02
2023-03-17T04:49:48.232Z,0.02
2023-03-17T04:50:47.585Z,0.02
2023-03-17T04:51:47.871Z,0.01
2023-03-17T04:52:47.185Z,0.01
2023-03-17T04:53:47.524Z,0.01
2023-03-17T04:54:48.751Z,0.01
2023-03-17T04:55:48.150Z,0.07
2023-03-17T04:56:48.382Z,0.01
2023-03-17T04:57:47.775Z,0.01
2023-03-17T04:58:48.098Z,0.02
2023-03-17T04:59:48.355Z,0.02
2023-03-17T05:00:47.759Z,0.02
2023-03-17T05:01:48.065Z,0.02
2023-03-17T05:02:48.333Z,0.03
2023-03-17T05:03:47.696Z,0.03
2023-03-17T05:04:48.063Z,0.08
2023-03-17T05:05:47.347Z,0.04
2023-03-17T05:06:48.656Z,0.06
2023-03-17T05:07:47.968Z,0.07
2023-03-17T05:08:47.338Z,0.18
2023-03-17T05:09:48.686Z,0.07
2023-03-17T05:10:47.966Z,0.08
2023-03-17T05:11:47.352Z,0.10
2023-03-17T05:12:47.675Z,0.12
2023-03-17T05:13:46.988Z,0.14
2023-03-17T05:14:48.276Z,0.17
2023-03-17T05:15:47.710Z,0.19
2023-03-17T05:16:48.008Z,0.23
2023-03-17T05:17:47.326Z,0.27
2023-03-17T05:18:47.650Z,0.31
2023-03-17T05:19:47.925Z,0.39
2023-03-17T05:20:47.338Z,0.47
2023-03-17T05:21:47.678Z,0.60
2023-03-17T05:22:46.965Z,0.79
2023-03-17T05:23:47.317Z,0.99
2023-03-17T05:24:47.760Z,1.17
2023-03-17T05:25:46.948Z,1.28
2023-03-17T05:26:47.272Z,1.31
2023-03-17T05:27:47.657Z,1.37
2023-03-17T05:28:46.955Z,1.50
2023-03-17T05:29:47.266Z,1.69
2023-03-17T05:30:47.618Z,1.93
2023-03-17T05:31:47.778Z,2.68
2023-03-17T05:32:47.286Z,2.92
2023-03-17T05:33:48.554Z,3.33
2023-03-17T05:34:46.962Z,3.98
2023-03-17T05:35:47.210Z,4.16
2023-03-17T05:36:47.545Z,5.24
2023-03-17T05:37:46.806Z,5.79
2023-03-17T05:38:47.137Z,6.54
2023-03-17T05:39:47.544Z,7.13
2023-03-17T05:40:46.794Z,7.57
2023-03-17T05:41:47.171Z,8.20
2023-03-17T05:42:47.486Z,8.69
2023-03-17T05:43:46.935Z,9.34
2023-03-17T05:44:47.151Z,9.91
2023-03-17T05:45:48.528Z,10.87
2023-03-17T05:46:46.785Z,12.21
2023-03-17T05:47:48.075Z,13.72
2023-03-17T05:48:48.425Z,15.20
2023-03-17T05:49:46.798Z,16.79
2023-03-17T05:50:48.098Z,18.69
2023-03-17T05:51:46.529Z,20.72
2023-03-17T05:52:46.780Z,23.05
2023-03-17T05:53:47.077Z,25.54
2023-03-17T05:54:46.375Z,28.08
2023-03-17T05:55:46.719Z,30.94
2023-03-17T05:56:47.064Z,34.04
2023-03-17T05:57:46.332Z,37.40
2023-03-17T05:58:46.672Z,41.16
2023-03-17T05:59:47.022Z,45.30
2023-03-17T06:00:46.289Z,49.77
2023-03-17T06:01:46.657Z,54.65
2023-03-17T06:02:47.243Z,60.28
2023-03-17T06:03:46.363Z,66.42
2023-03-17T06:04:46.662Z,75.35
2023-03-17T06:05:47.024Z,84.37
2023-03-17T06:06:46.293Z,85.27
2023-03-17T06:07:54.060Z,84.60
2023-03-17T06:08:47.959Z,87.07
2023-03-17T06:09:46.257Z,89.78
2023-03-17T06:10:46.572Z,90.95
2023-03-17T06:11:46.906Z,94.34
2023-03-17T06:12:47.214Z,98.27
2023-03-17T06:13:46.499Z,101.70
2023-03-17T06:14:47.869Z,104.69
2023-03-17T06:15:46.125Z,106.81
2023-03-17T06:16:46.428Z,111.57
2023-03-17T06:17:46.760Z,116.98
2023-03-17T06:18:47.070Z,123.32
2023-03-17T06:19:48.967Z,132.12
2023-03-17T06:20:46.669Z,143.17
2023-03-17T06:21:47.074Z,157.96
2023-03-17T06:23:02.148Z,161.08
2023-03-17T06:23:47.777Z,170.07
2023-03-17T06:24:47.015Z,173.56
2023-03-17T06:25:46.298Z,186.05
2023-03-17T06:26:46.642Z,203.00
2023-03-17T06:27:46.984Z,208.44
2023-03-17T06:28:46.260Z,202.32
2023-03-17T06:29:46.623Z,196.91
2023-03-17T06:30:47.025Z,195.14
2023-03-17T06:31:46.253Z,193.29
2023-03-17T06:32:46.596Z,199.45
2023-03-17T06:33:46.913Z,216.98
2023-03-17T06:34:46.188Z,227.94
2023-03-17T06:35:46.564Z,232.50
2023-03-17T06:36:46.828Z,232.44
2023-03-17T06:37:46.116Z,228.71
2023-03-17T06:38:46.457Z,228.00
2023-03-17T06:39:46.811Z,225.48
2023-03-17T06:40:46.074Z,231.04
2023-03-17T06:41:46.537Z,237.20
2023-03-17T06:42:46.757Z,247.52
2023-03-17T06:43:46.021Z,248.89
2023-03-17T06:44:46.392Z,258.24
2023-03-17T06:45:46.712Z,261.69
2023-03-17T06:46:46.025Z,268.31
2023-03-17T06:47:46.299Z,282.70
2023-03-17T06:48:46.602Z,295.56
2023-03-17T06:49:45.859Z,290.56
2023-03-17T06:50:46.202Z,298.96
2023-03-17T06:51:46.482Z,316.12
2023-03-17T06:52:46.874Z,327.19
2023-03-17T06:53:46.342Z,362.70
2023-03-17T06:54:46.367Z,376.85
2023-03-17T06:55:45.647Z,392.36
2023-03-17T06:56:45.949Z,403.36
2023-03-17T06:57:46.277Z,413.22
2023-03-17T06:58:46.661Z,426.00
2023-03-17T06:59:45.862Z,434.83
2023-03-17T07:00:46.182Z,434.21
2023-03-17T07:01:46.517Z,426.65
2023-03-17T07:02:45.775Z,436.70
2023-03-17T07:03:46.099Z,437.02
2023-03-17T07:04:46.538Z,433.26
2023-03-17T07:05:45.632Z,442.98
2023-03-17T07:06:46.116Z,449.91
2023-03-17T07:07:46.291Z,453.18
2023-03-17T07:08:45.551Z,466.15
2023-03-17T07:09:45.953Z,470.21
2023-03-17T07:10:46.205Z,473.72
2023-03-17T07:11:45.377Z,475.54
2023-03-17T07:12:45.761Z,485.60
2023-03-17T07:13:46.003Z,489.43
2023-03-17T07:14:46.324Z,475.69
2023-03-17T07:15:45.667Z,471.20
2023-03-17T07:16:45.977Z,466.93
2023-03-17T07:17:46.200Z,469.84
2023-03-17T07:18:45.487Z,467.01
2023-03-17T07:19:45.775Z,471.12
2023-03-17T07:20:46.082Z,472.44
2023-03-17T07:21:46.939Z,483.91
2023-03-17T07:22:45.712Z,490.34
2023-03-17T07:23:45.973Z,495.78
2023-03-17T07:24:46.227Z,506.83
2023-03-17T07:25:45.501Z,530.16
2023-03-17T07:26:45.766Z,525.32
2023-03-17T07:27:46.077Z,528.86
2023-03-17T07:28:45.348Z,542.43
2023-03-17T07:29:45.652Z,531.45
2023-03-17T07:30:45.946Z,538.96
2023-03-17T07:31:45.665Z,528.71
2023-03-17T07:32:45.498Z,545.21
2023-03-17T07:33:45.773Z,551.21
2023-03-17T07:34:46.049Z,525.79
2023-03-17T07:35:45.332Z,578.53
2023-03-17T07:36:45.603Z,532.03
2023-03-17T07:37:45.869Z,516.75
2023-03-17T07:38:45.154Z,503.92
2023-03-17T07:39:45.957Z,533.54
2023-03-17T07:40:45.751Z,541.11
2023-03-17T07:41:45.005Z,548.04
2023-03-17T07:42:45.293Z,535.37
2023-03-17T07:43:45.586Z,548.93
2023-03-17T07:44:45.898Z,558.08
2023-03-17T07:45:45.197Z,563.94
2023-03-17T07:46:45.406Z,541.30
2023-03-17T07:47:45.720Z,551.08
2023-03-17T07:48:44.937Z,578.72
2023-03-17T07:49:45.254Z,582.74
2023-03-17T07:50:45.566Z,583.91
2023-03-17T07:51:45.844Z,591.40
2023-03-17T07:52:45.108Z,599.65
2023-03-17T07:53:45.393Z,616.10
2023-03-17T07:54:45.649Z,593.77
2023-03-17T07:55:44.899Z,594.02
2023-03-17T07:56:45.693Z,596.14
2023-03-17T07:57:45.466Z,607.68
2023-03-17T07:58:45.778Z,614.30
2023-03-17T07:59:44.959Z,604.71
2023-03-17T08:00:45.326Z,598.51
2023-03-17T08:01:45.561Z,584.65
2023-03-17T08:02:44.855Z,576.62
2023-03-17T08:03:45.144Z,596.90
2023-03-17T08:04:45.319Z,625.37
2023-03-17T08:05:45.582Z,629.33
2023-03-17T08:06:44.867Z,614.85
2023-03-17T08:07:45.143Z,596.56
2023-03-17T08:08:45.437Z,597.58
2023-03-17T08:09:44.679Z,595.52
2023-03-17T08:10:44.961Z,596.82
2023-03-17T08:11:45.208Z,588.38
2023-03-17T08:12:45.515Z,589.27
2023-03-17T08:13:44.740Z,588.51
2023-03-17T08:14:45.009Z,569.67
2023-03-17T08:15:45.272Z,580.51
2023-03-17T08:16:45.641Z,609.35
2023-03-17T08:17:44.851Z,636.20
2023-03-17T08:18:45.167Z,659.13
2023-03-17T08:19:45.376Z,681.08
2023-03-17T08:20:44.630Z,685.87
2023-03-17T08:21:44.938Z,695.29
2023-03-17T08:22:45.233Z,656.94
2023-03-17T08:23:44.482Z,709.80
2023-03-17T08:24:44.800Z,731.99
2023-03-17T08:25:45.045Z,715.37
2023-03-17T08:26:45.301Z,707.74
2023-03-17T08:27:44.518Z,747.15
2023-03-17T08:28:44.772Z,763.74
2023-03-17T08:29:45.014Z,749.26
2023-03-17T08:30:45.386Z,770.51
2023-03-17T08:31:46.562Z,743.89
2023-03-17T08:32:44.876Z,801.40
2023-03-17T08:33:45.086Z,784.12
2023-03-17T08:34:44.293Z,789.78
2023-03-17T08:35:44.686Z,840.50
2023-03-17T08:36:44.882Z,788.25
2023-03-17T08:37:45.146Z,843.19
2023-03-17T08:38:44.420Z,826.40
2023-03-17T08:39:44.661Z,954.03
2023-03-17T08:40:44.964Z,939.18
2023-03-17T08:41:44.213Z,915.14
2023-03-17T08:42:44.485Z,956.86
2023-03-17T08:43:44.764Z,1015.03
2023-03-17T08:44:45.035Z,850.77
2023-03-17T08:45:44.287Z,1011.89
2023-03-17T08:46:44.570Z,1015.43
2023-03-17T08:47:44.811Z,898.28
2023-03-17T08:48:45.059Z,866.74
2023-03-17T08:49:44.291Z,911.35
2023-03-17T08:50:44.546Z,911.85
2023-03-17T08:51:44.922Z,912.87
2023-03-17T08:52:45.076Z,941.17
2023-03-17T08:53:44.326Z,950.77
2023-03-17T08:54:44.567Z,988.77
2023-03-17T08:55:44.825Z,1030.32
2023-03-17T08:56:44.028Z,1008.20
2023-03-17T08:57:44.665Z,1051.81
2023-03-17T08:58:44.560Z,1061.13
2023-03-17T08:59:44.822Z,1056.07
2023-03-17T09:00:44.024Z,1062.63
2023-03-17T09:01:44.321Z,1034.75
2023-03-17T09:02:44.547Z,993.93
2023-03-17T09:03:44.781Z,861.33
2023-03-17T09:04:43.962Z,836.14
2023-03-17T09:05:44.183Z,798.21
2023-03-17T09:07:01.888Z,949.58
2023-03-17T09:07:45.676Z,962.77
2023-03-17T09:08:43.860Z,946.81
2023-03-17T09:09:44.155Z,911.98
2023-03-17T09:10:44.545Z,903.07
2023-03-17T09:11:44.578Z,896.58
2023-03-17T09:12:43.803Z,963.46
2023-03-17T09:13:44.028Z,921.06
2023-03-17T09:14:44.997Z,930.78
2023-03-17T09:15:44.556Z,929.26
2023-03-17T09:16:44.748Z,894.15
2023-03-17T09:17:43.940Z,876.84
2023-03-17T09:18:44.360Z,935.91
2023-03-17T09:19:44.468Z,1015.45
2023-03-17T09:20:45.017Z,991.55
2023-03-17T09:21:43.859Z,1007.99
2023-03-17T09:22:44.148Z,989.88
2023-03-17T09:23:44.368Z,900.65
2023-03-17T09:24:44.616Z,1072.89
2023-03-17T09:25:43.835Z,1017.25
2023-03-17T09:26:44.075Z,1039.21
2023-03-17T09:27:44.336Z,1077.28
2023-03-17T09:28:44.581Z,1020.30
2023-03-17T09:29:43.800Z,1004.44
2023-03-17T09:30:44.114Z,959.11
2023-03-17T09:31:44.299Z,949.98
2023-03-17T09:32:44.539Z,966.41
2023-03-17T09:33:43.685Z,958.56
2023-03-17T09:34:43.917Z,939.86
2023-03-17T09:35:44.180Z,998.47
2023-03-17T09:36:44.394Z,935.08
2023-03-17T09:37:44.615Z,885.26
2023-03-17T09:38:43.870Z,834.08
2023-03-17T09:39:44.148Z,876.15
2023-03-17T09:40:44.425Z,874.34
2023-03-17T09:41:43.564Z,855.33
2023-03-17T09:42:44.350Z,810.95
2023-03-17T09:43:44.041Z,777.23
2023-03-17T09:44:44.245Z,803.71
2023-03-17T09:45:43.824Z,836.98
2023-03-17T09:46:43.777Z,842.52
2023-03-17T09:47:43.963Z,849.79
2023-03-17T09:48:44.192Z,882.13
2023-03-17T09:49:43.391Z,880.15
2023-03-17T09:50:43.648Z,936.29
2023-03-17T09:51:43.942Z,943.86
2023-03-17T09:52:44.129Z,960.04
2023-03-17T09:53:43.316Z,976.96
2023-03-17T09:54:43.553Z,986.28
2023-03-17T09:55:43.804Z,1002.74
2023-03-17T09:56:44.019Z,952.74
2023-03-17T09:57:44.304Z,1016.02
2023-03-17T09:58:43.435Z,1032.69
2023-03-17T09:59:44.627Z,992.68
2023-03-17T10:00:43.923Z,915.12
2023-03-17T10:01:44.263Z,881.78
2023-03-17T10:02:43.374Z,871.42
2023-03-17T10:03:43.649Z,884.30
2023-03-17T10:04:44.743Z,890.93
2023-03-17T10:05:45.025Z,829.65
2023-03-17T10:06:43.220Z,924.71
2023-03-17T10:07:43.415Z,935.73
2023-03-17T10:08:43.686Z,986.50
2023-03-17T10:09:43.986Z,924.10
2023-03-17T10:10:44.040Z,968.12
2023-03-17T10:11:43.290Z,1006.56
2023-03-17T10:12:43.495Z,1146.69
2023-03-17T10:13:43.771Z,1168.20
2023-03-17T10:14:43.997Z,1148.88
2023-03-17T10:15:43.270Z,1141.78
2023-03-17T10:16:43.431Z,1141.69
2023-03-17T10:17:43.613Z,1102.07
2023-03-17T10:18:43.810Z,1061.49
2023-03-17T10:19:42.981Z,949.23
2023-03-17T10:20:43.292Z,909.07
2023-03-17T10:21:43.425Z,1003.63
2023-03-17T10:22:43.635Z,918.76
2023-03-17T10:23:43.904Z,1149.26
2023-03-17T10:24:44.010Z,1198.12
2023-03-17T10:25:43.386Z,1212.15
2023-03-17T10:26:43.548Z,1142.69
2023-03-17T10:27:43.702Z,1243.73
2023-03-17T10:28:43.823Z,1125.20
2023-03-17T10:29:43.099Z,882.77
2023-03-17T10:30:43.301Z,946.71
2023-03-17T10:31:43.592Z,928.13
2023-03-17T10:32:44.727Z,1144.49
2023-03-17T10:33:42.946Z,1099.22
2023-03-17T10:34:43.173Z,1071.68
2023-03-17T10:35:43.370Z,833.47
2023-03-17T10:36:43.600Z,946.13
2023-03-17T10:37:43.961Z,1285.72
2023-03-17T10:38:42.993Z,1316.63
2023-03-17T10:39:43.170Z,1196.68
2023-03-17T10:40:44.354Z,1165.08
2023-03-17T10:41:44.547Z,1163.90
2023-03-17T10:42:42.925Z,964.23
2023-03-17T10:43:43.072Z,925.85
2023-03-17T10:44:43.251Z,995.79
2023-03-17T10:45:45.263Z,1000.46
2023-03-17T10:46:42.653Z,1017.59
2023-03-17T10:47:42.815Z,877.79
2023-03-17T10:48:43.076Z,885.57
2023-03-17T10:49:43.219Z,1014.25
2023-03-17T10:50:43.444Z,1088.07
2023-03-17T10:51:42.612Z,1088.10
2023-03-17T10:52:42.789Z,1158.26
2023-03-17T10:53:42.988Z,1118.29
2023-03-17T10:54:43.246Z,1031.95
2023-03-17T10:55:43.385Z,1086.93
2023-03-17T10:56:42.551Z,1082.14
2023-03-17T10:57:43.661Z,1076.81
2023-03-17T10:58:42.874Z,1033.27
2023-03-17T10:59:44.377Z,1231.47
2023-03-17T11:00:43.345Z,1173.01
2023-03-17T11:01:42.433Z,1094.93
2023-03-17T11:02:42.593Z,1072.32
2023-03-17T11:03:42.882Z,1030.11
2023-03-17T11:04:43.037Z,990.26
2023-03-17T11:05:43.238Z,989.57
2023-03-17T11:06:42.515Z,926.47
2023-03-17T11:07:42.606Z,927.32
2023-03-17T11:08:42.804Z,937.67
2023-03-17T11:09:43.036Z,949.11
2023-03-17T11:10:43.257Z,875.25
2023-03-17T11:11:42.409Z,885.96
2023-03-17T11:12:42.719Z,930.06
2023-03-17T11:13:42.871Z,895.73
2023-03-17T11:14:43.089Z,931.82
2023-03-17T11:15:42.309Z,991.08
2023-03-17T11:16:42.575Z,884.22
2023-03-17T11:17:42.744Z,912.83
2023-03-17T11:18:42.950Z,937.94
2023-03-17T11:19:42.164Z,1001.39
2023-03-17T11:20:43.342Z,933.82
2023-03-17T11:21:42.574Z,956.95
2023-03-17T11:22:42.809Z,950.46
2023-03-17T11:23:43.104Z,917.57
2023-03-17T11:24:42.239Z,893.48
2023-03-17T11:25:42.438Z,1021.37
2023-03-17T11:26:42.696Z,1088.63
2023-03-17T11:27:42.876Z,1059.79
2023-03-17T11:28:42.063Z,1007.67
2023-03-17T11:29:42.310Z,985.37
2023-03-17T11:30:42.490Z,948.96
2023-03-17T11:31:42.760Z,951.41
2023-03-17T11:32:42.973Z,951.35
2023-03-17T11:33:42.122Z,928.73
2023-03-17T11:34:42.303Z,963.17
2023-03-17T11:35:42.557Z,957.54
2023-03-17T11:36:42.698Z,930.19
2023-03-17T11:37:42.918Z,951.27
2023-03-17T11:38:42.073Z,929.82
2023-03-17T11:39:43.311Z,938.75
2023-03-17T11:40:42.486Z,974.99
2023-03-17T11:41:42.730Z,950.40
2023-03-17T11:42:41.881Z,992.32
2023-03-17T11:43:42.090Z,1033.28
2023-03-17T11:44:42.269Z,950.34
2023-03-17T11:45:42.577Z,957.33
2023-03-17T11:46:42.691Z,975.41
2023-03-17T11:47:41.956Z,999.91
2023-03-17T11:48:42.069Z,1039.40
2023-03-17T11:49:42.263Z,1037.18
2023-03-17T11:50:42.505Z,1006.83
2023-03-17T11:51:42.760Z,980.20
2023-03-17T11:52:41.922Z,1040.51
2023-03-17T11:53:42.170Z,1019.09
2023-03-17T11:54:42.325Z,1024.47
2023-03-17T11:55:42.497Z,980.92
2023-03-17T11:56:41.654Z,982.69
2023-03-17T11:57:41.847Z,985.39
2023-03-17T11:58:42.981Z,984.57
2023-03-17T11:59:42.336Z,979.40
2023-03-17T12:00:43.976Z,979.85
2023-03-17T12:01:42.575Z,992.87
2023-03-17T12:02:42.769Z,1012.20
2023-03-17T12:03:41.995Z,1027.06
2023-03-17T12:04:43.164Z,988.68
2023-03-17T12:05:42.440Z,960.35
2023-03-17T12:06:41.532Z,948.50
2023-03-17T12:07:42.659Z,941.64
2023-03-17T12:08:41.900Z,922.64
2023-03-17T12:09:42.192Z,927.85
2023-03-17T12:10:43.234Z,919.44
2023-03-17T12:11:41.523Z,899.78
2023-03-17T12:12:41.711Z,906.98
2023-03-17T12:13:41.850Z,934.46
2023-03-17T12:14:41.983Z,925.87
2023-03-17T12:15:43.193Z,927.42
2023-03-17T12:16:42.400Z,965.78
2023-03-17T12:17:41.525Z,986.49
2023-03-17T12:18:42.708Z,1005.77
2023-03-17T12:19:41.929Z,1038.75
2023-03-17T12:20:42.120Z,1064.35
2023-03-17T12:21:42.295Z,1064.25
2023-03-17T12:22:41.581Z,1029.40
2023-03-17T12:23:41.678Z,1054.87
2023-03-17T12:24:41.858Z,1025.48
2023-03-17T12:25:43.055Z,989.14
2023-03-17T12:26:42.224Z,975.85
2023-03-17T12:27:41.469Z,978.53
2023-03-17T12:28:42.084Z,992.81
2023-03-17T12:29:42.869Z,993.79
2023-03-17T12:30:42.120Z,967.38
2023-03-17T12:31:41.223Z,989.91
2023-03-17T12:32:42.446Z,998.03
2023-03-17T12:33:41.653Z,977.03
2023-03-17T12:34:41.924Z,931.41
2023-03-17T12:35:43.008Z,906.74
2023-03-17T12:36:41.204Z,918.53
2023-03-17T12:37:42.319Z,920.21
2023-03-17T12:38:41.567Z,946.37
2023-03-17T12:39:41.765Z,953.45
2023-03-17T12:40:41.957Z,945.17
2023-03-17T12:41:41.080Z,927.88
2023-03-17T12:42:42.337Z,917.17
2023-03-17T12:43:41.471Z,922.68
2023-03-17T12:44:42.647Z,934.87
2023-03-17T12:45:42.896Z,919.27
2023-03-17T12:46:41.174Z,917.87
2023-03-17T12:47:41.268Z,929.45
2023-03-17T12:48:42.453Z,932.46
2023-03-17T12:49:41.680Z,938.30
2023-03-17T12:50:41.862Z,948.32
2023-03-17T12:51:41.006Z,965.24
2023-03-17T12:52:41.238Z,969.65
2023-03-17T12:53:42.401Z,974.11